bpm-power.com alexa rank chart, bpm-power.com alexa rank daily changes

bpm-power.com alexa rank chart, bpm-power.com alexa rank daily changes

bpm-power.com
Actual rank:
133 369

RANK HISTORY

Date Rank Diff
2018/06/18 133 369 -56 835
2018/06/17 190 204 +131 516
2018/06/16 58 688 -19 609
2018/06/15 78 297 -325 008
2018/06/14 403 305 +285 981
2018/06/13 117 324 -41 281
2018/06/12 158 605 +88 554
2018/06/11 70 051 -9 304
2018/06/10 79 355 +39 487
2018/06/09 39 868 -89 854
2018/06/08 129 722 +82 707
2018/06/07 47 015 -2 338
2018/06/06 49 353 -32 043
2018/06/05 81 396 +48 922
2018/06/04 32 474 -254 618
2018/06/03 287 092 +235 753
2018/06/02 51 339 -52 295
2018/06/01 103 634 -82 864
2018/05/31 186 498 -14 676
2018/05/30 201 174 +93 462
2018/05/29 107 712 +18 779
2018/05/27 88 933 +18 038
2018/05/26 70 895 -9 228
2018/05/25 80 123 +1 490
2018/05/24 78 633 +33 950
2018/05/23 44 683 -9 128
2018/05/22 53 811 -74 744
2018/05/21 128 555 -46 043
2018/05/20 174 598 +69 703
2018/05/19 104 895 +23 418
2018/05/18 81 477 +21 198
2018/05/17 60 279 -57 415
2018/05/16 117 694 +61 289
2018/05/15 56 405 -32
2018/05/14 56 437 -28 956
2018/05/13 85 393 +25 465
2018/05/12 59 928 -35 916
2018/05/11 95 844 -858
2018/05/10 96 702 +24 866
2018/05/09 71 836 +25 340
2018/05/08 46 496 -9 672
2018/05/07 56 168 +5 141
2018/05/06 51 027 -4 685
2018/05/05 55 712 -27 913
2018/05/04 83 625 -21 169
2018/05/03 104 794 +50 170
2018/05/02 54 624 -147 737
2018/05/01 202 361 +165 703
2018/04/30 36 658 +2 209
2018/04/29 34 449 -29 952
2018/04/28 64 401 +11 064
2018/04/27 53 337 +1 761
2018/04/26 51 576 +19 389
2018/04/25 32 187 -50 262
2018/04/24 82 449 +29 112
2018/04/23 53 337 +17 308
2018/04/22 36 029 -21 728
2018/04/21 57 757 -21 914
2018/04/20 79 671 +16 095
2018/04/19 63 576

WIDGET FOR YOUR SITE

DOMAINS WITH THE NEAREST RANK

Domain Rank
koploan.org 133 364
drmcdougall.com 133 365
goipeace-essaycontest.org 133 366
playrix.com 133 367
baltimorebeatdown.com 133 368
bpm-power.com 133 369
buzzoid.com 133 370
deliaonline.com 133 371
bestpornpictures.com 133 372
alphaspel.se 133 373
vidplayer.pl 133 374

DOMAINS WITH THE NEAREST RANK BY TLD .com

Domain Rank
flexradio.com 133 361
micksgarage.com 133 363
drmcdougall.com 133 365
playrix.com 133 367
baltimorebeatdown.com 133 368
bpm-power.com 133 369
buzzoid.com 133 370
deliaonline.com 133 371
bestpornpictures.com 133 372
japaninsides.com 133 380
listenfms.com 133 381